createdAt,value
2019-04-16T00:02:18.483Z,13.48
2019-04-16T00:04:53.353Z,15.95
2019-04-16T00:07:41.526Z,14.23
2019-04-16T00:10:20.762Z,17.15
2019-04-16T00:12:56.203Z,14.63
2019-04-16T00:15:29.060Z,15.68
2019-04-16T00:18:01.781Z,15.30
2019-04-16T00:20:37.958Z,14.13
2019-04-16T00:23:26.388Z,14.47
2019-04-16T00:25:58.159Z,13.75
2019-04-16T00:28:33.353Z,12.15
2019-04-16T00:31:06.169Z,12.90
2019-04-16T00:33:39.388Z,11.93
2019-04-16T00:36:15.383Z,12.43
2019-04-16T00:38:47.772Z,11.65
2019-04-16T00:41:20.289Z,11.50
2019-04-16T00:43:52.880Z,15.18
2019-04-16T00:46:25.568Z,14.05
2019-04-16T00:48:58.595Z,12.00
2019-04-16T00:51:30.979Z,12.55
2019-04-16T00:54:09.888Z,12.73
2019-04-16T00:56:39.057Z,14.87
2019-04-16T00:59:10.842Z,22.07
2019-04-16T01:01:42.410Z,16.70
2019-04-16T01:04:14.868Z,15.30
2019-04-16T01:06:47.430Z,17.27
2019-04-16T01:09:19.937Z,12.23
2019-04-16T01:11:52.516Z,15.35
2019-04-16T01:14:27.447Z,14.75
2019-04-16T01:17:03.843Z,15.63
2019-04-16T01:19:33.972Z,18.85
2019-04-16T01:22:06.627Z,16.30
2019-04-16T01:24:40.269Z,13.10
2019-04-16T01:27:11.515Z,14.75
2019-04-16T01:29:45.016Z,16.12
2019-04-16T01:32:19.151Z,16.45
2019-04-16T01:35:11.786Z,16.10
2019-04-16T01:38:04.445Z,16.42
2019-04-16T01:40:40.574Z,15.35
2019-04-16T01:43:11.866Z,17.52
2019-04-16T01:45:44.249Z,15.53
2019-04-16T01:48:18.573Z,16.50
2019-04-16T01:50:51.199Z,15.13
2019-04-16T01:53:23.028Z,16.75
2019-04-16T01:55:57.018Z,16.30
2019-04-16T01:58:33.854Z,16.15
2019-04-16T02:01:07.945Z,17.00
2019-04-16T02:03:41.244Z,17.98
2019-04-16T02:06:13.737Z,16.97
2019-04-16T02:08:46.265Z,14.43
2019-04-16T02:11:21.953Z,14.35
2019-04-16T02:13:53.760Z,17.65
2019-04-16T02:16:26.005Z,16.10
2019-04-16T02:19:00.759Z,18.27
2019-04-16T02:21:32.103Z,15.40
2019-04-16T02:24:07.673Z,15.65
2019-04-16T02:26:42.143Z,14.20
2019-04-16T02:29:14.726Z,15.47
2019-04-16T02:31:51.287Z,17.95
2019-04-16T02:34:21.917Z,17.17
2019-04-16T02:37:00.894Z,24.70
2019-04-16T02:39:46.976Z,15.70
2019-04-16T02:44:38.622Z,16.10
2019-04-16T02:47:11.395Z,20.60
2019-04-16T02:49:43.824Z,17.55
2019-04-16T02:52:19.209Z,15.65
2019-04-16T02:54:54.813Z,14.40
2019-04-16T02:57:30.533Z,17.57
2019-04-16T03:00:05.116Z,14.68
2019-04-16T03:02:40.674Z,15.00
2019-04-16T03:05:17.518Z,14.13
2019-04-16T03:07:51.456Z,16.23
2019-04-16T03:10:25.980Z,15.28
2019-04-16T03:13:00.826Z,14.23
2019-04-16T03:15:49.712Z,17.30
2019-04-16T03:18:26.196Z,15.63
2019-04-16T03:20:59.011Z,16.65
2019-04-16T03:23:36.487Z,14.95
2019-04-16T03:26:05.484Z,13.25
2019-04-16T03:28:42.726Z,14.53
2019-04-16T03:31:20.185Z,16.25
2019-04-16T03:33:50.227Z,35.17
2019-04-16T03:36:26.586Z,16.93
2019-04-16T03:38:56.759Z,16.60
2019-04-16T03:41:29.237Z,14.53
2019-04-16T03:44:04.136Z,17.90
2019-04-16T03:46:34.666Z,15.93
2019-04-16T03:49:09.981Z,14.33
2019-04-16T03:51:42.617Z,14.15
2019-04-16T03:54:14.590Z,15.10
2019-04-16T03:56:48.555Z,15.48
2019-04-16T03:59:21.237Z,14.28
2019-04-16T04:01:53.883Z,14.68
2019-04-16T04:04:29.005Z,13.38
2019-04-16T04:06:59.508Z,14.50
2019-04-16T04:09:32.512Z,13.32
2019-04-16T04:12:06.204Z,14.73
2019-04-16T04:14:38.588Z,14.03
2019-04-16T04:17:11.038Z,16.35
2019-04-16T04:19:43.480Z,15.48
2019-04-16T04:22:17.025Z,15.58
2019-04-16T04:24:49.389Z,15.03
2019-04-16T04:27:24.152Z,13.55
2019-04-16T04:29:57.265Z,12.90
2019-04-16T04:32:35.365Z,13.83
2019-04-16T04:35:05.488Z,13.85
2019-04-16T04:37:40.153Z,13.78
2019-04-16T04:40:15.854Z,14.05
2019-04-16T04:42:47.970Z,13.62
2019-04-16T04:45:20.767Z,13.03
2019-04-16T04:47:53.217Z,12.20
2019-04-16T04:50:28.720Z,13.40
2019-04-16T04:53:02.297Z,13.03
2019-04-16T04:55:35.058Z,15.48
2019-04-16T04:58:07.567Z,13.93
2019-04-16T05:00:41.124Z,12.93
2019-04-16T05:03:15.879Z,11.93
2019-04-16T05:05:50.517Z,12.65
2019-04-16T05:08:22.059Z,12.20
2019-04-16T05:10:59.784Z,11.78
2019-04-16T05:13:27.810Z,11.83
2019-04-16T05:16:02.011Z,12.68
2019-04-16T05:18:34.790Z,12.18
2019-04-16T05:21:07.423Z,11.73
2019-04-16T05:23:40.195Z,12.82
2019-04-16T05:26:13.981Z,11.43
2019-04-16T05:28:47.445Z,12.68
2019-04-16T05:31:24.384Z,12.60
2019-04-16T05:33:54.201Z,15.98
2019-04-16T05:36:30.033Z,13.35
2019-04-16T05:39:05.863Z,13.98
2019-04-16T05:41:40.261Z,11.80
2019-04-16T05:44:13.876Z,12.23
2019-04-16T05:46:47.940Z,12.30
2019-04-16T05:49:24.609Z,12.60
2019-04-16T05:51:53.862Z,12.15
2019-04-16T05:54:34.843Z,14.18
2019-04-16T05:57:11.061Z,13.00
2019-04-16T05:59:45.277Z,12.90
2019-04-16T06:02:19.952Z,15.23
2019-04-16T06:04:55.571Z,12.73
2019-04-16T06:07:26.235Z,15.60
2019-04-16T06:09:58.768Z,56.33
2019-04-16T06:12:39.884Z,12.35
2019-04-16T06:15:28.184Z,11.65
2019-04-16T06:18:21.265Z,10.40
2019-04-16T06:20:57.381Z,10.25
2019-04-16T06:23:32.669Z,12.35
2019-04-16T06:26:06.867Z,15.40
2019-04-16T06:28:42.592Z,10.78
2019-04-16T06:31:33.360Z,10.93
2019-04-16T06:34:09.203Z,10.68
2019-04-16T06:36:50.648Z,11.03
2019-04-16T06:39:42.637Z,9.35
2019-04-16T06:42:21.721Z,10.93
2019-04-16T06:44:54.836Z,10.15
2019-04-16T06:47:31.854Z,10.15
2019-04-16T06:50:31.213Z,9.98
2019-04-16T06:53:13.564Z,10.32
2019-04-16T06:55:51.142Z,11.10
2019-04-16T06:58:27.965Z,11.00
2019-04-16T07:01:10.604Z,11.22
2019-04-16T07:03:49.980Z,10.70
2019-04-16T07:06:40.186Z,9.90
2019-04-16T07:09:15.623Z,9.25
2019-04-16T07:11:54.542Z,10.63
2019-04-16T07:14:26.711Z,11.33
2019-04-16T07:17:00.139Z,10.80
2019-04-16T07:19:33.589Z,10.90
2019-04-16T07:22:11.413Z,10.70
2019-04-16T07:24:44.314Z,10.55
2019-04-16T07:27:20.201Z,11.70
2019-04-16T07:29:54.631Z,10.68
2019-04-16T07:32:45.377Z,10.95
2019-04-16T07:35:27.172Z,10.85
2019-04-16T07:38:16.941Z,9.80
2019-04-16T07:41:10.972Z,11.57
2019-04-16T07:43:58.331Z,11.63
2019-04-16T07:46:32.790Z,11.60
2019-04-16T07:49:08.653Z,11.63
2019-04-16T07:51:57.909Z,11.55
2019-04-16T07:54:49.767Z,11.55
2019-04-16T07:57:22.563Z,12.03
2019-04-16T07:59:54.359Z,11.78
2019-04-16T08:02:29.137Z,12.65
2019-04-16T08:05:07.450Z,11.63
2019-04-16T08:07:39.264Z,11.78
2019-04-16T08:10:16.876Z,13.00
2019-04-16T08:12:50.603Z,13.15
2019-04-16T08:15:23.902Z,11.48
2019-04-16T08:17:57.910Z,10.95
2019-04-16T08:20:33.183Z,12.33
2019-04-16T08:23:07.160Z,11.55
2019-04-16T08:25:41.527Z,11.53
2019-04-16T08:28:15.954Z,12.05
2019-04-16T08:30:50.016Z,12.33
2019-04-16T08:33:28.286Z,14.03
2019-04-16T08:35:59.040Z,13.45
2019-04-16T08:38:34.888Z,12.60
2019-04-16T08:41:07.536Z,14.68
2019-04-16T08:43:41.085Z,13.63
2019-04-16T08:46:16.012Z,13.15
2019-04-16T08:48:54.278Z,13.13
2019-04-16T08:51:30.686Z,12.95
2019-04-16T08:54:06.299Z,13.08
2019-04-16T08:56:40.211Z,13.78
2019-04-16T08:59:15.018Z,13.73
2019-04-16T09:01:47.848Z,13.28
2019-04-16T09:04:22.752Z,12.70
2019-04-16T09:07:09.679Z,13.60
2019-04-16T09:09:32.133Z,13.48
2019-04-16T09:12:29.177Z,12.85
2019-04-16T09:15:00.016Z,12.43
2019-04-16T09:17:33.918Z,15.85
2019-04-16T09:20:17.103Z,13.20
2019-04-16T09:22:53.675Z,13.40
2019-04-16T09:25:26.875Z,13.30
2019-04-16T09:28:13.154Z,12.73
2019-04-16T09:30:46.651Z,12.78
2019-04-16T09:33:20.981Z,13.32
2019-04-16T09:36:12.481Z,12.85
2019-04-16T09:38:54.304Z,12.35
2019-04-16T09:41:37.094Z,12.18
2019-04-16T09:44:10.426Z,12.40
2019-04-16T09:46:51.166Z,12.10
2019-04-16T09:49:23.277Z,12.33
2019-04-16T09:51:55.481Z,13.13
2019-04-16T09:54:29.660Z,12.63
2019-04-16T09:57:02.367Z,13.10
2019-04-16T09:59:36.225Z,15.55
2019-04-16T10:02:10.401Z,12.23
2019-04-16T10:04:43.205Z,13.30
2019-04-16T10:07:16.027Z,13.30
2019-04-16T10:09:51.324Z,13.45
2019-04-16T10:12:25.686Z,13.48
2019-04-16T10:15:00.304Z,14.58
2019-04-16T10:20:06.534Z,12.90
2019-04-16T10:22:39.525Z,13.13
2019-04-16T10:25:13.957Z,12.88
2019-04-16T10:27:49.864Z,13.32
2019-04-16T10:30:29.771Z,12.90
2019-04-16T10:33:05.961Z,15.68
2019-04-16T10:35:41.175Z,14.90
2019-04-16T10:38:17.142Z,13.55
2019-04-16T10:40:51.882Z,14.65
2019-04-16T10:46:09.869Z,15.18
2019-04-16T10:48:46.882Z,13.88
2019-04-16T10:51:28.211Z,14.63
2019-04-16T10:54:19.223Z,15.18
2019-04-16T10:57:10.443Z,15.40
2019-04-16T11:00:03.690Z,15.03
2019-04-16T11:02:37.802Z,16.40
2019-04-16T11:05:28.382Z,14.23
2019-04-16T11:08:07.463Z,13.90
2019-04-16T11:10:40.184Z,14.00
2019-04-16T11:13:13.210Z,14.13
2019-04-16T11:15:46.171Z,17.55
2019-04-16T11:18:19.014Z,20.27
2019-04-16T11:20:52.908Z,19.35
2019-04-16T11:23:25.685Z,16.73
2019-04-16T11:25:58.537Z,18.35
2019-04-16T11:28:33.971Z,18.48
2019-04-16T11:31:16.450Z,23.07
2019-04-16T11:33:49.059Z,25.08
2019-04-16T11:36:21.634Z,29.98
2019-04-16T11:38:53.138Z,34.35
2019-04-16T11:41:27.815Z,35.85
2019-04-16T11:46:39.393Z,42.43
2019-04-16T11:49:14.642Z,37.30
2019-04-16T11:51:56.393Z,34.00
2019-04-16T11:54:31.200Z,29.05
2019-04-16T11:57:03.839Z,23.92
2019-04-16T11:59:38.212Z,25.82
2019-04-16T12:02:12.083Z,28.25
2019-04-16T12:04:55.935Z,22.85
2019-04-16T12:07:24.114Z,22.70
2019-04-16T12:10:03.211Z,19.75
2019-04-16T12:12:37.094Z,17.73
2019-04-16T12:15:26.074Z,18.35
2019-04-16T12:18:04.699Z,18.50
2019-04-16T12:20:57.129Z,17.73
2019-04-16T12:23:47.021Z,16.97
2019-04-16T12:26:19.350Z,17.82
2019-04-16T12:28:52.183Z,15.03
2019-04-16T12:31:26.454Z,15.40
2019-04-16T12:34:01.387Z,15.03
2019-04-16T12:36:53.999Z,15.83
2019-04-16T12:39:35.993Z,15.45
2019-04-16T12:42:13.559Z,14.58
2019-04-16T12:45:03.977Z,17.87
2019-04-16T12:47:37.912Z,19.75
2019-04-16T12:50:16.703Z,19.23
2019-04-16T12:52:59.482Z,15.72
2019-04-16T12:55:43.317Z,17.27
2019-04-16T12:58:20.016Z,18.85
2019-04-16T13:00:53.404Z,21.68
2019-04-16T13:03:34.205Z,19.95
2019-04-16T13:06:26.965Z,18.70
2019-04-16T13:09:19.607Z,15.25
2019-04-16T13:11:54.716Z,18.25
2019-04-16T13:14:30.335Z,16.40
2019-04-16T13:17:29.192Z,15.03
2019-04-16T13:20:10.368Z,15.78
2019-04-16T13:22:44.084Z,16.12
2019-04-16T13:25:17.975Z,15.00
2019-04-16T13:27:51.689Z,16.60
2019-04-16T13:30:24.354Z,17.12
2019-04-16T13:32:57.136Z,15.68
2019-04-16T13:35:29.631Z,19.50
2019-04-16T13:38:08.016Z,16.85
2019-04-16T13:40:41.309Z,16.85
2019-04-16T13:43:12.905Z,15.25
2019-04-16T13:45:46.976Z,14.93
2019-04-16T13:48:21.222Z,15.53
2019-04-16T13:50:55.072Z,19.15
2019-04-16T13:53:32.985Z,14.25
2019-04-16T13:56:24.057Z,17.05
2019-04-16T13:59:07.150Z,14.03
2019-04-16T14:01:59.122Z,14.83
2019-04-16T14:04:36.739Z,16.02
2019-04-16T14:07:07.563Z,16.60
2019-04-16T14:09:44.117Z,17.42
2019-04-16T14:12:15.484Z,14.93
2019-04-16T14:14:49.474Z,18.00
2019-04-16T14:17:26.183Z,16.95
2019-04-16T14:19:58.816Z,17.02
2019-04-16T14:22:31.710Z,23.55
2019-04-16T14:25:04.160Z,19.75
2019-04-16T14:27:38.057Z,17.42
2019-04-16T14:30:33.490Z,19.98
2019-04-16T14:33:08.015Z,18.10
2019-04-16T14:35:41.614Z,15.90
2019-04-16T14:38:17.593Z,14.93
2019-04-16T14:40:50.590Z,17.52
2019-04-16T14:43:29.419Z,17.20
2019-04-16T14:46:01.740Z,30.85
2019-04-16T14:48:39.083Z,36.58
2019-04-16T14:51:11.891Z,24.25
2019-04-16T14:53:46.051Z,17.52
2019-04-16T14:56:36.489Z,16.90
2019-04-16T14:59:34.128Z,21.40
2019-04-16T15:02:03.192Z,19.27
2019-04-16T15:04:40.113Z,17.07
2019-04-16T15:07:18.798Z,20.80
2019-04-16T15:09:54.244Z,19.05
2019-04-16T15:12:48.142Z,20.27
2019-04-16T15:15:37.397Z,20.20
2019-04-16T15:18:29.998Z,19.40
2019-04-16T15:21:10.233Z,19.42
2019-04-16T15:23:42.550Z,16.57
2019-04-16T15:26:32.889Z,17.85
2019-04-16T15:29:07.026Z,16.82
2019-04-16T15:31:56.951Z,20.37
2019-04-16T15:34:33.227Z,17.50
2019-04-16T15:37:27.585Z,16.77
2019-04-16T15:40:00.710Z,15.43
2019-04-16T15:42:50.978Z,18.40
2019-04-16T15:45:28.924Z,16.27
2019-04-16T15:48:18.950Z,17.37
2019-04-16T15:51:14.809Z,16.35
2019-04-16T15:53:50.470Z,16.07
2019-04-16T15:56:39.884Z,16.45
2019-04-16T15:59:15.060Z,18.98
2019-04-16T16:02:07.962Z,17.90
2019-04-16T16:04:42.075Z,20.65
2019-04-16T16:07:17.124Z,17.73
2019-04-16T16:09:58.073Z,16.93
2019-04-16T16:12:30.061Z,18.25
2019-04-16T16:15:07.621Z,21.70
2019-04-16T16:17:39.404Z,17.23
2019-04-16T16:20:11.449Z,20.15
2019-04-16T16:22:44.423Z,21.07
2019-04-16T16:25:17.150Z,20.05
2019-04-16T16:27:49.522Z,18.12
2019-04-16T16:30:24.788Z,17.75
2019-04-16T16:32:59.207Z,19.55
2019-04-16T16:35:34.597Z,21.48
2019-04-16T16:38:11.159Z,22.17
2019-04-16T16:40:43.705Z,21.70
2019-04-16T16:43:15.548Z,21.80
2019-04-16T16:46:07.845Z,20.40
2019-04-16T16:48:40.934Z,17.10
2019-04-16T16:51:14.863Z,24.60
2019-04-16T16:54:02.501Z,17.80
2019-04-16T16:56:51.754Z,17.65
2019-04-16T16:59:28.732Z,20.60
2019-04-16T17:02:08.602Z,20.43
2019-04-16T17:04:38.897Z,18.35
2019-04-16T17:07:13.196Z,20.37
2019-04-16T17:09:47.192Z,21.97
2019-04-16T17:12:19.779Z,21.23
2019-04-16T17:14:51.318Z,21.37
2019-04-16T17:17:23.697Z,18.77
2019-04-16T17:20:00.018Z,20.68
2019-04-16T17:22:32.743Z,21.15
2019-04-16T17:25:04.628Z,19.05
2019-04-16T17:27:50.695Z,21.95
2019-04-16T17:30:12.215Z,22.37
2019-04-16T17:32:44.892Z,20.23
2019-04-16T17:35:16.570Z,18.42
2019-04-16T17:37:48.995Z,19.48
2019-04-16T17:40:28.978Z,20.12
2019-04-16T17:43:02.873Z,18.12
2019-04-16T17:45:42.893Z,19.80
2019-04-16T17:48:21.000Z,23.92
2019-04-16T17:51:02.838Z,22.22
2019-04-16T17:53:34.387Z,23.50
2019-04-16T17:56:13.947Z,20.45
2019-04-16T17:59:07.328Z,23.73
2019-04-16T18:01:58.142Z,19.23
2019-04-16T18:04:38.493Z,19.12
2019-04-16T18:07:30.490Z,22.20
2019-04-16T18:10:26.447Z,22.82
2019-04-16T18:13:00.795Z,27.13
2019-04-16T18:15:33.632Z,25.30
2019-04-16T18:18:07.537Z,24.12
2019-04-16T18:20:41.023Z,23.98
2019-04-16T18:23:15.702Z,27.25
2019-04-16T18:26:03.640Z,26.82
2019-04-16T18:28:53.909Z,30.50
2019-04-16T18:31:45.617Z,29.23
2019-04-16T18:34:40.272Z,32.17
2019-04-16T18:37:17.580Z,35.23
2019-04-16T18:40:07.974Z,31.68
2019-04-16T18:43:01.896Z,32.38
2019-04-16T18:45:36.030Z,37.03
2019-04-16T18:48:24.605Z,33.85
2019-04-16T18:50:59.934Z,36.05
2019-04-16T18:53:31.050Z,33.55
2019-04-16T18:56:03.674Z,34.92
2019-04-16T18:58:37.163Z,41.60
2019-04-16T19:01:11.784Z,35.73
2019-04-16T19:03:49.860Z,33.40
2019-04-16T19:06:23.095Z,34.92
2019-04-16T19:08:59.231Z,32.83
2019-04-16T19:11:30.803Z,31.85
2019-04-16T19:14:03.215Z,34.13
2019-04-16T19:16:34.734Z,34.15
2019-04-16T19:19:07.324Z,32.30
2019-04-16T19:21:42.335Z,32.88
2019-04-16T19:24:16.147Z,32.30
2019-04-16T19:26:53.618Z,32.40
2019-04-16T19:29:25.977Z,33.10
2019-04-16T19:31:58.943Z,30.48
2019-04-16T19:34:33.333Z,36.10
2019-04-16T19:37:05.801Z,31.57
2019-04-16T19:39:38.688Z,31.33
2019-04-16T19:42:11.675Z,30.25
2019-04-16T19:44:44.067Z,29.25
2019-04-16T19:47:18.059Z,28.42
2019-04-16T19:49:49.705Z,29.35
2019-04-16T19:52:21.114Z,29.82
2019-04-16T19:54:53.573Z,29.35
2019-04-16T19:57:25.368Z,26.65
2019-04-16T19:59:57.830Z,27.50
2019-04-16T20:02:32.956Z,27.40
2019-04-16T20:05:07.265Z,25.17
2019-04-16T20:07:38.758Z,23.42
2019-04-16T20:10:10.549Z,25.70
2019-04-16T20:12:43.106Z,24.67
2019-04-16T20:15:15.889Z,24.60
2019-04-16T20:17:48.433Z,24.40
2019-04-16T20:20:19.923Z,24.20
2019-04-16T20:22:51.425Z,22.37
2019-04-16T20:25:23.876Z,26.02
2019-04-16T20:27:55.336Z,24.77
2019-04-16T20:30:28.880Z,23.55
2019-04-16T20:33:00.602Z,22.98
2019-04-16T20:35:33.139Z,21.57
2019-04-16T20:38:06.541Z,24.87
2019-04-16T20:40:37.966Z,23.98
2019-04-16T20:43:10.273Z,24.32
2019-04-16T20:45:43.117Z,22.25
2019-04-16T20:48:17.236Z,27.48
2019-04-16T20:50:52.733Z,24.67
2019-04-16T20:53:22.489Z,27.05
2019-04-16T20:55:54.809Z,24.65
2019-04-16T20:58:30.661Z,24.92
2019-04-16T21:01:02.647Z,26.85
2019-04-16T21:03:33.925Z,26.80
2019-04-16T21:06:07.818Z,23.98
2019-04-16T21:08:39.881Z,25.45
2019-04-16T21:11:11.448Z,28.45
2019-04-16T21:13:42.952Z,29.27
2019-04-16T21:16:16.948Z,40.45
2019-04-16T21:18:48.413Z,50.65
2019-04-16T21:21:23.563Z,38.40
2019-04-16T21:23:53.944Z,28.77
2019-04-16T21:26:29.578Z,29.30
2019-04-16T21:29:03.626Z,26.75
2019-04-16T21:31:42.297Z,27.00
2019-04-16T21:34:24.220Z,27.98
2019-04-16T21:37:10.668Z,25.60
2019-04-16T21:39:47.083Z,26.82
2019-04-16T21:42:17.474Z,25.37
2019-04-16T21:44:48.974Z,24.98
2019-04-16T21:47:23.140Z,25.35
2019-04-16T21:49:52.902Z,23.62
2019-04-16T21:52:24.470Z,24.10
2019-04-16T21:54:56.024Z,26.10
2019-04-16T21:57:27.693Z,24.20
2019-04-16T21:59:59.425Z,27.10
2019-04-16T22:02:34.634Z,24.75
2019-04-16T22:05:06.916Z,27.15
2019-04-16T22:07:38.500Z,28.27
2019-04-16T22:10:10.128Z,25.45
2019-04-16T22:12:44.807Z,26.15
2019-04-16T22:15:15.704Z,26.68
2019-04-16T22:17:48.115Z,24.95
2019-04-16T22:20:20.788Z,23.65
2019-04-16T22:22:53.793Z,27.17
2019-04-16T22:25:26.893Z,28.10
2019-04-16T22:28:01.742Z,28.23
2019-04-16T22:30:36.608Z,33.20
2019-04-16T22:33:09.243Z,37.40
2019-04-16T22:35:40.916Z,32.17
2019-04-16T22:38:14.313Z,36.73
2019-04-16T22:41:04.532Z,34.75
2019-04-16T22:43:42.627Z,35.75
2019-04-16T22:46:31.919Z,34.67
2019-04-16T22:49:04.533Z,41.25
2019-04-16T22:51:39.771Z,36.53
2019-04-16T22:54:10.650Z,41.30
2019-04-16T22:56:43.287Z,34.30
2019-04-16T22:59:14.311Z,38.15
2019-04-16T23:01:48.110Z,39.70
2019-04-16T23:04:22.821Z,40.35
2019-04-16T23:06:55.088Z,36.77
2019-04-16T23:09:28.050Z,41.30
2019-04-16T23:11:59.735Z,38.45
2019-04-16T23:14:31.700Z,39.98
2019-04-16T23:17:03.956Z,37.45
2019-04-16T23:19:36.305Z,41.20
2019-04-16T23:22:14.050Z,32.33
2019-04-16T23:24:42.873Z,35.43
2019-04-16T23:27:16.033Z,36.00
2019-04-16T23:29:48.219Z,32.28
2019-04-16T23:32:21.372Z,34.67
2019-04-16T23:34:55.749Z,32.63
2019-04-16T23:37:27.434Z,33.27
2019-04-16T23:39:58.887Z,34.58
2019-04-16T23:42:32.479Z,32.78
2019-04-16T23:45:09.470Z,31.42
2019-04-16T23:48:00.302Z,30.52
2019-04-16T23:50:44.297Z,33.38
2019-04-16T23:53:24.740Z,30.45
2019-04-16T23:55:58.637Z,31.17
2019-04-16T23:58:32.662Z,29.55
